sensor_id;sensor_type;location;lat;lon;timestamp;pressure;altitude;pressure_sealevel;temperature;humidity
50852;BME280;43953;45.508;-122.806;2023-06-14T00:00:09;100877.44;;;26.44;34.87
50852;BME280;43953;45.508;-122.806;2023-06-14T00:00:42;100879.59;;;26.47;34.75
50852;BME280;43953;45.508;-122.806;2023-06-14T00:01:15;100885.94;;;26.48;34.44
50852;BME280;43953;45.508;-122.806;2023-06-14T00:01:46;100885.94;;;26.48;34.71
50852;BME280;43953;45.508;-122.806;2023-06-14T00:02:18;100881.22;;;26.48;34.78
50852;BME280;43953;45.508;-122.806;2023-06-14T00:02:49;100883.19;;;26.48;34.40
50852;BME280;43953;45.508;-122.806;2023-06-14T00:03:20;100873.88;;;26.44;34.71
50852;BME280;43953;45.508;-122.806;2023-06-14T00:03:52;100883.19;;;26.48;34.33
50852;BME280;43953;45.508;-122.806;2023-06-14T00:04:24;100878.47;;;26.48;34.39
50852;BME280;43953;45.508;-122.806;2023-06-14T00:04:56;100882.59;;;26.51;34.31
50852;BME280;43953;45.508;-122.806;2023-06-14T00:05:27;100881.78;;;26.50;33.99
50852;BME280;43953;45.508;-122.806;2023-06-14T00:06:00;100883.69;;;26.50;34.24
50852;BME280;43953;45.508;-122.806;2023-06-14T00:06:31;100883.69;;;26.50;34.02
50852;BME280;43953;45.508;-122.806;2023-06-14T00:07:05;100879.81;;;26.51;34.15
50852;BME280;43953;45.508;-122.806;2023-06-14T00:07:39;100881.78;;;26.50;34.05
50852;BME280;43953;45.508;-122.806;2023-06-14T00:08:14;100876.25;;;26.50;34.11
50852;BME280;43953;45.508;-122.806;2023-06-14T00:08:45;100880.94;;;26.50;34.35
50852;BME280;43953;45.508;-122.806;2023-06-14T00:09:17;100883.69;;;26.50;34.16
50852;BME280;43953;45.508;-122.806;2023-06-14T00:09:48;100880.94;;;26.50;34.09
50852;BME280;43953;45.508;-122.806;2023-06-14T00:10:19;100885.03;;;26.52;33.99
50852;BME280;43953;45.508;-122.806;2023-06-14T00:10:51;100883.91;;;26.53;34.09
50852;BME280;43953;45.508;-122.806;2023-06-14T00:11:22;100875.63;;;26.53;33.93
50852;BME280;43953;45.508;-122.806;2023-06-14T00:11:53;100876.44;;;26.54;33.78
50852;BME280;43953;45.508;-122.806;2023-06-14T00:12:25;100880.81;;;26.55;34.12
50852;BME280;43953;45.508;-122.806;2023-06-14T00:12:56;100871.72;;;26.54;34.00
50852;BME280;43953;45.508;-122.806;2023-06-14T00:13:27;100875.63;;;26.53;33.81
50852;BME280;43953;45.508;-122.806;2023-06-14T00:13:58;100881.16;;;26.53;33.53
50852;BME280;43953;45.508;-122.806;2023-06-14T00:14:30;100877.53;;;26.53;33.44
50852;BME280;43953;45.508;-122.806;2023-06-14T00:15:01;100884.22;;;26.52;33.55
50852;BME280;43953;45.508;-122.806;2023-06-14T00:15:33;100870.41;;;26.52;33.54
50852;BME280;43953;45.508;-122.806;2023-06-14T00:16:04;100873.16;;;26.52;33.26
50852;BME280;43953;45.508;-122.806;2023-06-14T00:16:36;100867.66;;;26.52;33.23
50852;BME280;43953;45.508;-122.806;2023-06-14T00:17:07;100877.88;;;26.51;33.61
50852;BME280;43953;45.508;-122.806;2023-06-14T00:17:39;100871.53;;;26.51;33.17
50852;BME280;43953;45.508;-122.806;2023-06-14T00:18:11;100870.72;;;26.50;33.17
50852;BME280;43953;45.508;-122.806;2023-06-14T00:18:42;100878.16;;;26.50;33.20
50852;BME280;43953;45.508;-122.806;2023-06-14T00:19:14;100880.13;;;26.49;32.92
50852;BME280;43953;45.508;-122.806;2023-06-14T00:19:46;100874.31;;;26.51;32.98
50852;BME280;43953;45.508;-122.806;2023-06-14T00:20:17;100877.06;;;26.51;32.74
50852;BME280;43953;45.508;-122.806;2023-06-14T00:20:49;100876.25;;;26.50;32.90
50852;BME280;43953;45.508;-122.806;2023-06-14T00:21:21;100876.25;;;26.50;32.43
50852;BME280;43953;45.508;-122.806;2023-06-14T00:21:52;100887.28;;;26.50;32.52
50852;BME280;43953;45.508;-122.806;2023-06-14T00:22:23;100879.81;;;26.51;32.81
50852;BME280;43953;45.508;-122.806;2023-06-14T00:22:59;100882.59;;;26.51;32.55
50852;BME280;43953;45.508;-122.806;2023-06-14T00:23:31;100876.00;;;26.47;32.29
50852;BME280;43953;45.508;-122.806;2023-06-14T00:24:02;100879.81;;;26.51;32.34
50852;BME280;43953;45.508;-122.806;2023-06-14T00:24:33;100880.94;;;26.50;32.39
50852;BME280;43953;45.508;-122.806;2023-06-14T00:25:04;100874.59;;;26.49;32.58
50852;BME280;43953;45.508;-122.806;2023-06-14T00:25:36;100876.25;;;26.50;32.68
50852;BME280;43953;45.508;-122.806;2023-06-14T00:26:08;100876.25;;;26.50;32.29
50852;BME280;43953;45.508;-122.806;2023-06-14T00:26:39;100883.41;;;26.51;32.42
50852;BME280;43953;45.508;-122.806;2023-06-14T00:27:10;100873.97;;;26.52;32.12
50852;BME280;43953;45.508;-122.806;2023-06-14T00:27:41;100872.34;;;26.51;32.11
50852;BME280;43953;45.508;-122.806;2023-06-14T00:28:13;100873.97;;;26.52;32.32
50852;BME280;43953;45.508;-122.806;2023-06-14T00:28:44;100878.69;;;26.52;32.01
50852;BME280;43953;45.508;-122.806;2023-06-14T00:29:15;100866.84;;;26.51;32.15
50852;BME280;43953;45.508;-122.806;2023-06-14T00:29:46;100878.69;;;26.52;32.22
50852;BME280;43953;45.508;-122.806;2023-06-14T00:30:17;100878.69;;;26.52;32.56
50852;BME280;43953;45.508;-122.806;2023-06-14T00:30:49;100885.03;;;26.52;32.33
50852;BME280;43953;45.508;-122.806;2023-06-14T00:31:20;100879.50;;;26.52;32.54
50852;BME280;43953;45.508;-122.806;2023-06-14T00:31:51;100875.94;;;26.52;32.22
50852;BME280;43953;45.508;-122.806;2023-06-14T00:32:23;100878.75;;;26.47;32.66
50852;BME280;43953;45.508;-122.806;2023-06-14T00:32:56;100880.63;;;26.51;32.61
50852;BME280;43953;45.508;-122.806;2023-06-14T00:33:28;100879.50;;;26.52;32.17
50852;BME280;43953;45.508;-122.806;2023-06-14T00:33:59;100880.31;;;26.53;32.34
50852;BME280;43953;45.508;-122.806;2023-06-14T00:34:31;100883.06;;;26.53;32.40
50852;BME280;43953;45.508;-122.806;2023-06-14T00:35:02;100885.81;;;26.53;32.37
50852;BME280;43953;45.508;-122.806;2023-06-14T00:35:33;100875.94;;;26.52;32.27
50852;BME280;43953;45.508;-122.806;2023-06-14T00:36:04;100873.16;;;26.52;32.38
50852;BME280;43953;45.508;-122.806;2023-06-14T00:36:36;100874.78;;;26.53;32.40
50852;BME280;43953;45.508;-122.806;2023-06-14T00:37:07;100879.50;;;26.52;32.54
50852;BME280;43953;45.508;-122.806;2023-06-14T00:37:38;100878.69;;;26.52;32.55
50852;BME280;43953;45.508;-122.806;2023-06-14T00:38:10;100878.69;;;26.52;32.52
50852;BME280;43953;45.508;-122.806;2023-06-14T00:38:41;100880.31;;;26.53;32.30
50852;BME280;43953;45.508;-122.806;2023-06-14T00:39:12;100874.78;;;26.53;32.70
50852;BME280;43953;45.508;-122.806;2023-06-14T00:39:43;100881.97;;;26.54;32.20
50852;BME280;43953;45.508;-122.806;2023-06-14T00:40:15;100874.78;;;26.53;32.33
50852;BME280;43953;45.508;-122.806;2023-06-14T00:40:46;100876.72;;;26.52;32.31
50852;BME280;43953;45.508;-122.806;2023-06-14T00:41:17;100878.38;;;26.53;32.49
50852;BME280;43953;45.508;-122.806;2023-06-14T00:41:48;100873.69;;;26.54;32.56
50852;BME280;43953;45.508;-122.806;2023-06-14T00:42:23;100878.69;;;26.52;32.67
50852;BME280;43953;45.508;-122.806;2023-06-14T00:42:55;100877.53;;;26.53;32.51
50852;BME280;43953;45.508;-122.806;2023-06-14T00:43:26;100880.31;;;26.53;32.34
50852;BME280;43953;45.508;-122.806;2023-06-14T00:43:57;100886.66;;;26.53;32.33
50852;BME280;43953;45.508;-122.806;2023-06-14T00:44:29;100882.78;;;26.54;32.53
50852;BME280;43953;45.508;-122.806;2023-06-14T00:45:00;100880.31;;;26.53;32.51
50852;BME280;43953;45.508;-122.806;2023-06-14T00:45:31;100878.38;;;26.53;32.13
50852;BME280;43953;45.508;-122.806;2023-06-14T00:46:06;100880.31;;;26.53;32.18
50852;BME280;43953;45.508;-122.806;2023-06-14T00:46:37;100880.31;;;26.53;32.54
50852;BME280;43953;45.508;-122.806;2023-06-14T00:47:09;100873.16;;;26.52;32.24
50852;BME280;43953;45.508;-122.806;2023-06-14T00:47:40;100875.94;;;26.52;32.33
50852;BME280;43953;45.508;-122.806;2023-06-14T00:48:12;100880.31;;;26.53;32.35
50852;BME280;43953;45.508;-122.806;2023-06-14T00:48:44;100876.72;;;26.52;32.42
50852;BME280;43953;45.508;-122.806;2023-06-14T00:49:15;100873.97;;;26.52;32.12
50852;BME280;43953;45.508;-122.806;2023-06-14T00:49:49;100875.63;;;26.53;32.18
50852;BME280;43953;45.508;-122.806;2023-06-14T00:50:21;100877.53;;;26.53;32.02
50852;BME280;43953;45.508;-122.806;2023-06-14T00:50:54;100876.44;;;26.54;32.09
50852;BME280;43953;45.508;-122.806;2023-06-14T00:51:25;100875.63;;;26.53;31.97
50852;BME280;43953;45.508;-122.806;2023-06-14T00:51:57;100873.69;;;26.54;31.97
50852;BME280;43953;45.508;-122.806;2023-06-14T00:52:28;100875.63;;;26.53;31.71
50852;BME280;43953;45.508;-122.806;2023-06-14T00:53:00;100873.16;;;26.52;31.66
50852;BME280;43953;45.508;-122.806;2023-06-14T00:53:32;100878.69;;;26.52;31.79
50852;BME280;43953;45.508;-122.806;2023-06-14T00:54:06;100873.16;;;26.52;31.83
50852;BME280;43953;45.508;-122.806;2023-06-14T00:54:38;100873.16;;;26.52;32.00
50852;BME280;43953;45.508;-122.806;2023-06-14T00:55:09;100854.78;;;26.33;32.01
50852;BME280;43953;45.508;-122.806;2023-06-14T00:55:40;100878.69;;;26.52;32.13
50852;BME280;43953;45.508;-122.806;2023-06-14T00:56:12;100867.66;;;26.52;31.91
50852;BME280;43953;45.508;-122.806;2023-06-14T00:56:45;100875.94;;;26.52;31.79
50852;BME280;43953;45.508;-122.806;2023-06-14T00:57:16;100872.34;;;26.51;32.20
50852;BME280;43953;45.508;-122.806;2023-06-14T00:57:48;100877.88;;;26.51;32.15
50852;BME280;43953;45.508;-122.806;2023-06-14T00:58:20;100873.16;;;26.52;31.86
50852;BME280;43953;45.508;-122.806;2023-06-14T00:58:52;100879.81;;;26.51;31.47
50852;BME280;43953;45.508;-122.806;2023-06-14T00:59:24;100873.50;;;26.50;31.72
50852;BME280;43953;45.508;-122.806;2023-06-14T00:59:55;100880.94;;;26.50;31.50
50852;BME280;43953;45.508;-122.806;2023-06-14T01:00:27;100880.13;;;26.49;31.37
50852;BME280;43953;45.508;-122.806;2023-06-14T01:00:59;100868.22;;;26.49;31.18
50852;BME280;43953;45.508;-122.806;2023-06-14T01:01:30;100871.00;;;26.49;31.49
50852;BME280;43953;45.508;-122.806;2023-06-14T01:02:04;100869.38;;;26.48;31.43
50852;BME280;43953;45.508;-122.806;2023-06-14T01:02:38;100874.91;;;26.48;31.73
50852;BME280;43953;45.508;-122.806;2023-06-14T01:03:10;100874.38;;;26.46;31.36
50852;BME280;43953;45.508;-122.806;2023-06-14T01:03:43;100869.38;;;26.48;31.10
50852;BME280;43953;45.508;-122.806;2023-06-14T01:04:14;100867.53;;;26.43;31.53
50852;BME280;43953;45.508;-122.806;2023-06-14T01:04:46;100872.44;;;26.46;31.30
50852;BME280;43953;45.508;-122.806;2023-06-14T01:05:20;100865.81;;;26.47;31.26
50852;BME280;43953;45.508;-122.806;2023-06-14T01:05:56;100869.38;;;26.48;31.30
50852;BME280;43953;45.508;-122.806;2023-06-14T01:06:48;100862.72;;;26.49;31.49
50852;BME280;43953;45.508;-122.806;2023-06-14T01:08:14;100864.38;;;26.50;31.34
50852;BME280;43953;45.508;-122.806;2023-06-14T01:08:57;100870.72;;;26.50;31.36
50852;BME280;43953;45.508;-122.806;2023-06-14T01:10:07;100873.97;;;26.52;31.19
50852;BME280;43953;45.508;-122.806;2023-06-14T01:10:32;100862.94;;;26.52;31.29
50852;BME280;43953;45.508;-122.806;2023-06-14T01:11:30;100862.13;;;26.52;31.59
50852;BME280;43953;45.508;-122.806;2023-06-14T01:12:11;100868.44;;;26.52;31.47
50852;BME280;43953;45.508;-122.806;2023-06-14T01:12:47;100863.75;;;26.53;31.28
50852;BME280;43953;45.508;-122.806;2023-06-14T01:13:56;100865.41;;;26.54;31.25
50852;BME280;43953;45.508;-122.806;2023-06-14T01:14:28;100866.19;;;26.54;31.41
50852;BME280;43953;45.508;-122.806;2023-06-14T01:15:02;100865.69;;;26.52;31.44
50852;BME280;43953;45.508;-122.806;2023-06-14T01:15:34;100870.91;;;26.54;31.61
50852;BME280;43953;45.508;-122.806;2023-06-14T01:16:05;100866.19;;;26.54;31.57
50852;BME280;43953;45.508;-122.806;2023-06-14T01:16:37;100868.63;;;26.56;31.64
50852;BME280;43953;45.508;-122.806;2023-06-14T01:17:10;100865.88;;;26.56;31.24
50852;BME280;43953;45.508;-122.806;2023-06-14T01:17:48;100864.78;;;26.57;31.43
50852;BME280;43953;45.508;-122.806;2023-06-14T01:18:22;100862.00;;;26.57;31.38
50852;BME280;43953;45.508;-122.806;2023-06-14T01:18:56;100859.25;;;26.57;31.33
50852;BME280;43953;45.508;-122.806;2023-06-14T01:19:28;100862.81;;;26.58;31.53
50852;BME280;43953;45.508;-122.806;2023-06-14T01:20:03;100865.56;;;26.58;31.26
50852;BME280;43953;45.508;-122.806;2023-06-14T01:20:39;100862.63;;;26.54;31.25
50852;BME280;43953;45.508;-122.806;2023-06-14T01:21:28;100873.88;;;26.58;31.56
50852;BME280;43953;45.508;-122.806;2023-06-14T01:22:01;100860.88;;;26.58;31.48
50852;BME280;43953;45.508;-122.806;2023-06-14T01:22:33;100861.69;;;26.59;31.45
50852;BME280;43953;45.508;-122.806;2023-06-14T01:23:04;100855.84;;;26.60;31.33
50852;BME280;43953;45.508;-122.806;2023-06-14T01:23:35;100853.09;;;26.60;31.57
50852;BME280;43953;45.508;-122.806;2023-06-14T01:24:08;100856.66;;;26.61;31.32
50852;BME280;43953;45.508;-122.806;2023-06-14T01:24:39;100853.91;;;26.61;31.41
50852;BME280;43953;45.508;-122.806;2023-06-14T01:25:15;100855.53;;;26.62;31.09
50852;BME280;43953;45.508;-122.806;2023-06-14T01:25:47;100867.41;;;26.62;31.03
50852;BME280;43953;45.508;-122.806;2023-06-14T01:26:23;100857.00;;;26.59;30.84
50852;BME280;43953;45.508;-122.806;2023-06-14T01:26:54;100853.38;;;26.59;30.97
50852;BME280;43953;45.508;-122.806;2023-06-14T01:27:29;100844.28;;;26.58;30.92
50852;BME280;43953;45.508;-122.806;2023-06-14T01:28:01;100844.28;;;26.58;31.06
50852;BME280;43953;45.508;-122.806;2023-06-14T01:28:33;100849.81;;;26.58;31.35
50852;BME280;43953;45.508;-122.806;2023-06-14T01:29:06;100856.16;;;26.59;31.27
50852;BME280;43953;45.508;-122.806;2023-06-14T01:29:38;100848.72;;;26.59;31.17
50852;BME280;43953;45.508;-122.806;2023-06-14T01:30:10;100852.28;;;26.60;31.46
50852;BME280;43953;45.508;-122.806;2023-06-14T01:30:42;100838.25;;;26.56;31.22
50852;BME280;43953;45.508;-122.806;2023-06-14T01:31:19;100852.47;;;26.63;31.71
50852;BME280;43953;45.508;-122.806;2023-06-14T01:31:53;100849.69;;;26.63;31.63
50852;BME280;43953;45.508;-122.806;2023-06-14T01:32:25;100854.91;;;26.65;31.38
50852;BME280;43953;45.508;-122.806;2023-06-14T01:32:57;100847.44;;;26.65;31.39
50852;BME280;43953;45.508;-122.806;2023-06-14T01:33:29;100858.97;;;26.67;31.67
50852;BME280;43953;45.508;-122.806;2023-06-14T01:34:00;100854.59;;;26.66;31.57
50852;BME280;43953;45.508;-122.806;2023-06-14T01:34:32;100853.47;;;26.67;31.46
50852;BME280;43953;45.508;-122.806;2023-06-14T01:35:03;100852.66;;;26.67;31.48
50852;BME280;43953;45.508;-122.806;2023-06-14T01:35:34;100847.13;;;26.67;31.20
50852;BME280;43953;45.508;-122.806;2023-06-14T01:36:05;100851.03;;;26.66;31.38
50852;BME280;43953;45.508;-122.806;2023-06-14T01:36:40;100860.94;;;26.67;31.09
50852;BME280;43953;45.508;-122.806;2023-06-14T01:37:12;100860.13;;;26.66;31.07
50852;BME280;43953;45.508;-122.806;2023-06-14T01:37:44;100853.47;;;26.67;31.13
50852;BME280;43953;45.508;-122.806;2023-06-14T01:38:19;100852.66;;;26.67;31.36
50852;BME280;43953;45.508;-122.806;2023-06-14T01:38:50;100856.72;;;26.69;31.35
50852;BME280;43953;45.508;-122.806;2023-06-14T01:39:23;100844.34;;;26.67;31.00
50852;BME280;43953;45.508;-122.806;2023-06-14T01:39:54;100855.59;;;26.70;31.00
50852;BME280;43953;45.508;-122.806;2023-06-14T01:40:26;100863.06;;;26.70;30.92
50852;BME280;43953;45.508;-122.806;2023-06-14T01:40:58;100857.25;;;26.71;31.04
50852;BME280;43953;45.508;-122.806;2023-06-14T01:41:31;100822.44;;;26.48;30.90
50852;BME280;43953;45.508;-122.806;2023-06-14T01:42:02;100865.53;;;26.71;30.97
50852;BME280;43953;45.508;-122.806;2023-06-14T01:42:34;100861.94;;;26.71;30.81
50852;BME280;43953;45.508;-122.806;2023-06-14T01:43:07;100868.28;;;26.71;30.78
50852;BME280;43953;45.508;-122.806;2023-06-14T01:43:38;100860.47;;;26.73;30.83
50852;BME280;43953;45.508;-122.806;2023-06-14T01:44:11;100867.16;;;26.72;30.98
50852;BME280;43953;45.508;-122.806;2023-06-14T01:44:43;100863.25;;;26.73;31.06
50852;BME280;43953;45.508;-122.806;2023-06-14T01:45:15;100862.94;;;26.75;30.84
50852;BME280;43953;45.508;-122.806;2023-06-14T01:45:47;100862.13;;;26.74;31.11
50852;BME280;43953;45.508;-122.806;2023-06-14T01:46:19;100865.72;;;26.75;30.96
50852;BME280;43953;45.508;-122.806;2023-06-14T01:46:51;100856.28;;;26.76;30.88
50852;BME280;43953;45.508;-122.806;2023-06-14T01:47:22;100866.53;;;26.75;31.00
50852;BME280;43953;45.508;-122.806;2023-06-14T01:47:53;100856.63;;;26.74;31.24
50852;BME280;43953;45.508;-122.806;2023-06-14T01:48:25;100861.00;;;26.75;31.13
50852;BME280;43953;45.508;-122.806;2023-06-14T01:48:56;100844.88;;;26.69;31.07
50852;BME280;43953;45.508;-122.806;2023-06-14T01:49:28;100859.38;;;26.74;31.24
50852;BME280;43953;45.508;-122.806;2023-06-14T01:49:59;100854.66;;;26.75;30.99
50852;BME280;43953;45.508;-122.806;2023-06-14T01:50:30;100851.56;;;26.76;31.31
50852;BME280;43953;45.508;-122.806;2023-06-14T01:51:02;100854.84;;;26.78;31.06
50852;BME280;43953;45.508;-122.806;2023-06-14T01:51:33;100853.22;;;26.77;31.04
50852;BME280;43953;45.508;-122.806;2023-06-14T01:52:04;100852.06;;;26.78;30.78
50852;BME280;43953;45.508;-122.806;2023-06-14T01:52:37;100858.75;;;26.77;31.17
50852;BME280;43953;45.508;-122.806;2023-06-14T01:53:08;100854.84;;;26.78;31.33
50852;BME280;43953;45.508;-122.806;2023-06-14T01:53:40;100855.97;;;26.77;31.34
50852;BME280;43953;45.508;-122.806;2023-06-14T01:54:11;100854.84;;;26.78;31.02
50852;BME280;43953;45.508;-122.806;2023-06-14T01:54:42;100852.88;;;26.79;31.13
50852;BME280;43953;45.508;-122.806;2023-06-14T01:55:14;100859.22;;;26.80;31.31
50852;BME280;43953;45.508;-122.806;2023-06-14T01:55:48;100854.84;;;26.78;31.23
50852;BME280;43953;45.508;-122.806;2023-06-14T01:56:19;100854.84;;;26.78;31.34
50852;BME280;43953;45.508;-122.806;2023-06-14T01:56:52;100849.31;;;26.78;31.25
50852;BME280;43953;45.508;-122.806;2023-06-14T01:57:23;100846.88;;;26.77;31.17
50852;BME280;43953;45.508;-122.806;2023-06-14T01:57:56;100853.22;;;26.77;31.55
50852;BME280;43953;45.508;-122.806;2023-06-14T01:58:29;100857.09;;;26.76;31.33
50852;BME280;43953;45.508;-122.806;2023-06-14T01:59:00;100851.56;;;26.76;31.27
50852;BME280;43953;45.508;-122.806;2023-06-14T01:59:31;100853.22;;;26.77;31.61
50852;BME280;43953;45.508;-122.806;2023-06-14T02:00:05;100849.31;;;26.78;31.34
50852;BME280;43953;45.508;-122.806;2023-06-14T02:00:41;100852.06;;;26.78;31.31
50852;BME280;43953;45.508;-122.806;2023-06-14T02:01:13;100850.94;;;26.80;31.28
50852;BME280;43953;45.508;-122.806;2023-06-14T02:01:47;100852.19;;;26.73;31.59
50852;BME280;43953;45.508;-122.806;2023-06-14T02:02:18;100861.19;;;26.79;31.39
50852;BME280;43953;45.508;-122.806;2023-06-14T02:02:49;100856.47;;;26.80;31.77
50852;BME280;43953;45.508;-122.806;2023-06-14T02:03:20;100858.94;;;26.81;31.39
50852;BME280;43953;45.508;-122.806;2023-06-14T02:03:52;100856.66;;;26.83;31.50
50852;BME280;43953;45.508;-122.806;2023-06-14T02:04:24;100851.97;;;26.84;31.70
50852;BME280;43953;45.508;-122.806;2023-06-14T02:04:55;100855.53;;;26.84;31.44
50852;BME280;43953;45.508;-122.806;2023-06-14T02:05:28;100855.53;;;26.84;31.80
50852;BME280;43953;45.508;-122.806;2023-06-14T02:05:59;100846.03;;;26.76;31.76
50852;BME280;43953;45.508;-122.806;2023-06-14T02:06:30;100858.28;;;26.84;31.59
50852;BME280;43953;45.508;-122.806;2023-06-14T02:07:02;100858.28;;;26.84;31.70
50852;BME280;43953;45.508;-122.806;2023-06-14T02:07:33;100860.25;;;26.84;31.38
50852;BME280;43953;45.508;-122.806;2023-06-14T02:57:55;100913.69;;;23.23;42.06
50852;BME280;43953;45.508;-122.806;2023-06-14T02:58:27;100918.88;;;23.53;55.30
50852;BME280;43953;45.508;-122.806;2023-06-14T02:58:58;100908.25;;;23.71;40.69
50852;BME280;43953;45.508;-122.806;2023-06-14T02:59:31;100917.50;;;23.80;39.85
50852;BME280;43953;45.508;-122.806;2023-06-14T03:00:03;100916.09;;;23.82;39.00
50852;BME280;43953;45.508;-122.806;2023-06-14T03:00:35;100921.31;;;23.84;38.45
50852;BME280;43953;45.508;-122.806;2023-06-14T03:01:07;100919.66;;;23.83;38.56
50852;BME280;43953;45.508;-122.806;2023-06-14T03:01:39;100918.56;;;23.84;38.08
50852;BME280;43953;45.508;-122.806;2023-06-14T03:02:12;100919.66;;;23.83;38.10
50852;BME280;43953;45.508;-122.806;2023-06-14T03:02:43;100916.63;;;23.84;38.50
50852;BME280;43953;45.508;-122.806;2023-06-14T03:03:15;100920.19;;;23.85;38.29
50852;BME280;43953;45.508;-122.806;2023-06-14T03:03:47;100922.38;;;23.88;38.54
50852;BME280;43953;45.508;-122.806;2023-06-14T03:04:19;100918.50;;;23.89;38.39
50852;BME280;43953;45.508;-122.806;2023-06-14T03:04:51;100922.59;;;23.92;38.40
50852;BME280;43953;45.508;-122.806;2023-06-14T03:05:23;100923.13;;;23.94;38.10
50852;BME280;43953;45.508;-122.806;2023-06-14T03:05:55;100918.13;;;23.96;38.72
50852;BME280;43953;45.508;-122.806;2023-06-14T03:06:28;100923.34;;;23.97;38.09
50852;BME280;43953;45.508;-122.806;2023-06-14T03:07:01;100921.94;;;24.00;38.20
50852;BME280;43953;45.508;-122.806;2023-06-14T03:07:34;100923.28;;;24.02;38.04
50852;BME280;43953;45.508;-122.806;2023-06-14T03:08:05;100926.53;;;24.04;38.01
50852;BME280;43953;45.508;-122.806;2023-06-14T03:08:38;100927.91;;;24.07;37.94
50852;BME280;43953;45.508;-122.806;2023-06-14T03:09:10;100906.31;;;23.95;37.87
50852;BME280;43953;45.508;-122.806;2023-06-14T03:09:41;100925.09;;;24.12;37.89
50852;BME280;43953;45.508;-122.806;2023-06-14T03:10:13;100933.06;;;24.14;37.62
50852;BME280;43953;45.508;-122.806;2023-06-14T03:10:48;100936.31;;;24.16;37.61
50852;BME280;43953;45.508;-122.806;2023-06-14T03:11:20;100936.53;;;24.19;37.64
50852;BME280;43953;45.508;-122.806;2023-06-14T03:11:52;100937.38;;;24.20;37.66
50852;BME280;43953;45.508;-122.806;2023-06-14T03:12:23;100936.78;;;24.23;37.85
50852;BME280;43953;45.508;-122.806;2023-06-14T03:12:56;100938.13;;;24.25;37.78
50852;BME280;43953;45.508;-122.806;2023-06-14T03:13:27;100943.34;;;24.27;37.52
50852;BME280;43953;45.508;-122.806;2023-06-14T03:14:03;100938.34;;;24.29;37.48
50852;BME280;43953;45.508;-122.806;2023-06-14T03:14:35;100931.72;;;24.30;37.51
50852;BME280;43953;45.508;-122.806;2023-06-14T03:15:07;100919.44;;;24.22;37.66
50852;BME280;43953;45.508;-122.806;2023-06-14T03:15:40;100936.66;;;24.33;37.41
50852;BME280;43953;45.508;-122.806;2023-06-14T03:16:12;100937.47;;;24.34;37.50
50852;BME280;43953;45.508;-122.806;2023-06-14T03:16:45;100931.13;;;24.33;37.25
50852;BME280;43953;45.508;-122.806;2023-06-14T03:17:16;100936.06;;;24.36;37.35
50852;BME280;43953;45.508;-122.806;2023-06-14T03:17:48;100929.41;;;24.37;37.10
50852;BME280;43953;45.508;-122.806;2023-06-14T03:18:20;100933.81;;;24.38;37.22
50852;BME280;43953;45.508;-122.806;2023-06-14T03:18:53;100933.81;;;24.38;36.96
50852;BME280;43953;45.508;-122.806;2023-06-14T03:19:25;100932.41;;;24.41;37.12
50852;BME280;43953;45.508;-122.806;2023-06-14T03:19:57;100932.41;;;24.41;37.08
50852;BME280;43953;45.508;-122.806;2023-06-14T03:20:29;100931.28;;;24.42;36.67
50852;BME280;43953;45.508;-122.806;2023-06-14T03:21:04;100929.38;;;24.42;36.96
50852;BME280;43953;45.508;-122.806;2023-06-14T03:21:36;100934.91;;;24.42;36.66
50852;BME280;43953;45.508;-122.806;2023-06-14T03:22:07;100928.00;;;24.40;36.42
50852;BME280;43953;45.508;-122.806;2023-06-14T03:22:39;100937.38;;;24.44;36.94
50852;BME280;43953;45.508;-122.806;2023-06-14T03:23:12;100932.66;;;24.44;36.59
50852;BME280;43953;45.508;-122.806;2023-06-14T03:23:44;100935.97;;;24.46;36.85
50852;BME280;43953;45.508;-122.806;2023-06-14T03:24:15;100938.72;;;24.46;36.88
50852;BME280;43953;45.508;-122.806;2023-06-14T03:24:51;100934.81;;;24.47;36.61
50852;BME280;43953;45.508;-122.806;2023-06-14T03:25:23;100946.38;;;24.49;36.47
50852;BME280;43953;45.508;-122.806;2023-06-14T03:25:54;100946.38;;;24.49;36.76
50852;BME280;43953;45.508;-122.806;2023-06-14T03:26:27;100943.63;;;24.49;36.53
50852;BME280;43953;45.508;-122.806;2023-06-14T03:26:58;100946.06;;;24.51;36.47
50852;BME280;43953;45.508;-122.806;2023-06-14T03:27:30;100941.38;;;24.51;36.50
50852;BME280;43953;45.508;-122.806;2023-06-14T03:28:02;100948.53;;;24.52;36.60
50852;BME280;43953;45.508;-122.806;2023-06-14T03:28:34;100947.69;;;24.52;36.38
50852;BME280;43953;45.508;-122.806;2023-06-14T03:29:05;100951.28;;;24.52;36.21
50852;BME280;43953;45.508;-122.806;2023-06-14T03:29:37;100949.63;;;24.51;36.19
50852;BME280;43953;45.508;-122.806;2023-06-14T03:30:09;100954.84;;;24.53;36.25
50852;BME280;43953;45.508;-122.806;2023-06-14T03:30:41;100954.31;;;24.51;36.49
50852;BME280;43953;45.508;-122.806;2023-06-14T03:31:14;100957.28;;;24.55;36.23
50852;BME280;43953;45.508;-122.806;2023-06-14T03:32:02;100956.78;;;24.52;36.16
50852;BME280;43953;45.508;-122.806;2023-06-14T03:32:34;100955.66;;;24.54;36.33
50852;BME280;43953;45.508;-122.806;2023-06-14T03:33:06;100960.88;;;24.55;36.43
50852;BME280;43953;45.508;-122.806;2023-06-14T03:33:38;100955.66;;;24.54;35.75
50852;BME280;43953;45.508;-122.806;2023-06-14T03:34:10;100933.22;;;24.41;36.09
50852;BME280;43953;45.508;-122.806;2023-06-14T03:34:42;100960.56;;;24.57;35.85